createdAt,value
2019-02-24T00:01:19.700Z,103385.13
2019-02-24T00:02:25.202Z,103391.73
2019-02-24T00:03:30.546Z,103397.02
2019-02-24T00:04:35.524Z,103393.09
2019-02-24T00:05:40.976Z,103393.57
2019-02-24T00:06:45.950Z,103401.50
2019-02-24T00:07:51.221Z,103398.44
2019-02-24T00:08:56.247Z,103404.14
2019-02-24T00:10:01.724Z,103397.11
2019-02-24T00:11:06.822Z,103401.08
2019-02-24T00:12:11.837Z,103397.14
2019-02-24T00:13:16.781Z,103401.53
2019-02-24T00:14:24.050Z,103400.66
2019-02-24T00:15:29.133Z,103399.84
2019-02-24T00:16:34.108Z,103406.03
2019-02-24T00:17:39.217Z,103399.42
2019-02-24T00:18:44.242Z,103406.03
2019-02-24T00:19:49.317Z,103408.25
2019-02-24T00:20:54.798Z,103413.53
2019-02-24T00:22:01.830Z,103407.41
2019-02-24T00:23:07.258Z,103406.53
2019-02-24T00:24:12.571Z,103404.79
2019-02-24T00:25:17.966Z,103405.24
2019-02-24T00:26:24.525Z,103405.24
2019-02-24T00:27:29.630Z,103408.33
2019-02-24T00:28:34.720Z,103405.30
2019-02-24T00:29:42.018Z,103406.20
2019-02-24T00:30:47.000Z,103402.26
2019-02-24T00:31:52.078Z,103412.81
2019-02-24T00:32:57.073Z,103404.06
2019-02-24T00:34:02.529Z,103411.51
2019-02-24T00:35:07.654Z,103409.34
2019-02-24T00:36:13.831Z,103405.41
2019-02-24T00:37:20.508Z,103407.60
2019-02-24T00:38:25.532Z,103407.18
2019-02-24T00:39:30.753Z,103409.44
2019-02-24T00:40:35.793Z,103409.44
2019-02-24T00:41:41.139Z,103407.27
2019-02-24T00:42:46.211Z,103405.55
2019-02-24T00:43:51.653Z,103406.39
2019-02-24T00:44:56.705Z,103408.64
2019-02-24T00:46:01.938Z,103411.73
2019-02-24T00:47:07.234Z,103411.73
2019-02-24T00:48:12.209Z,103410.44
2019-02-24T00:49:17.299Z,103406.98
2019-02-24T00:50:22.303Z,103408.30
2019-02-24T00:51:27.325Z,103399.08
2019-02-24T00:52:32.309Z,103404.37
2019-02-24T00:53:37.515Z,103404.37
2019-02-24T00:54:42.488Z,103400.88
2019-02-24T00:55:47.583Z,103399.08
2019-02-24T00:56:52.638Z,103401.33
2019-02-24T00:57:58.093Z,103395.63
2019-02-24T00:59:03.146Z,103391.66
2019-02-24T01:00:10.053Z,103394.75
2019-02-24T01:01:15.493Z,103391.23
2019-02-24T01:02:20.580Z,103390.36
2019-02-24T01:03:25.669Z,103385.14
2019-02-24T01:04:30.633Z,103385.56
2019-02-24T01:05:35.921Z,103385.14
2019-02-24T01:06:41.091Z,103378.11
2019-02-24T01:07:46.488Z,103377.72
2019-02-24T01:08:51.458Z,103381.20
2019-02-24T01:09:56.478Z,103384.32
2019-02-24T01:11:01.926Z,103379.94
2019-02-24T01:12:06.970Z,103377.29
2019-02-24T01:13:12.064Z,103380.83
2019-02-24T01:14:17.506Z,103380.41
2019-02-24T01:15:22.880Z,103376.87
2019-02-24T01:16:28.445Z,103380.02
2019-02-24T01:17:33.437Z,103379.09
2019-02-24T01:18:38.507Z,103381.73
2019-02-24T01:19:43.498Z,103380.89
2019-02-24T01:20:48.547Z,103384.80
2019-02-24T01:21:53.817Z,103378.70
2019-02-24T01:22:59.603Z,103378.70
2019-02-24T01:24:04.530Z,103378.70
2019-02-24T01:25:09.741Z,103376.95
2019-02-24T01:26:15.083Z,103376.08
2019-02-24T01:27:20.572Z,103380.48
2019-02-24T01:28:25.750Z,103375.27
2019-02-24T01:29:30.858Z,103377.45
2019-02-24T01:30:39.324Z,103379.67
2019-02-24T01:31:44.494Z,103380.09
2019-02-24T01:32:49.535Z,103384.06
2019-02-24T01:33:54.502Z,103374.39
2019-02-24T01:34:59.551Z,103375.27
2019-02-24T01:36:04.588Z,103378.36
2019-02-24T01:37:09.884Z,103375.71
2019-02-24T01:38:15.096Z,103371.33
2019-02-24T01:39:20.484Z,103365.65
2019-02-24T01:40:25.511Z,103372.65
2019-02-24T01:41:30.461Z,103367.88
2019-02-24T01:42:35.880Z,103371.41
2019-02-24T01:43:41.258Z,103376.24
2019-02-24T01:44:46.358Z,103373.17
2019-02-24T01:45:51.511Z,103371.47
2019-02-24T01:46:56.576Z,103375.87
2019-02-24T01:48:01.669Z,103375.87
2019-02-24T01:49:06.672Z,103378.07
2019-02-24T01:50:11.704Z,103375.43
2019-02-24T01:51:16.666Z,103372.81
2019-02-24T01:52:21.784Z,103368.84
2019-02-24T01:53:27.950Z,103368.87
2019-02-24T01:54:33.486Z,103368.84
2019-02-24T01:55:38.803Z,103372.38
2019-02-24T01:56:44.080Z,103375.48
2019-02-24T01:57:49.170Z,103374.16
2019-02-24T01:58:54.407Z,103367.58
2019-02-24T02:00:00.177Z,103371.54
2019-02-24T02:01:05.372Z,103364.99
2019-02-24T02:02:10.425Z,103369.80
2019-02-24T02:03:15.506Z,103362.80
2019-02-24T02:04:20.846Z,103368.47
2019-02-24T02:05:25.916Z,103366.33
2019-02-24T02:06:31.048Z,103360.61
2019-02-24T02:07:36.010Z,103363.69
2019-02-24T02:08:41.123Z,103361.50
2019-02-24T02:09:46.776Z,103364.59
2019-02-24T02:10:51.732Z,103357.59
2019-02-24T02:11:57.077Z,103357.17
2019-02-24T02:13:02.226Z,103363.33
2019-02-24T02:14:07.241Z,103357.20
2019-02-24T02:15:12.417Z,103362.03
2019-02-24T02:16:17.630Z,103355.87
2019-02-24T02:17:22.995Z,103352.39
2019-02-24T02:18:28.062Z,103357.25
2019-02-24T02:19:33.189Z,103348.91
2019-02-24T02:20:38.388Z,103350.22
2019-02-24T02:21:43.808Z,103357.33
2019-02-24T02:22:49.588Z,103353.77
2019-02-24T02:23:55.286Z,103354.24
2019-02-24T02:25:00.946Z,103350.73
2019-02-24T02:26:06.197Z,103349.41
2019-02-24T02:27:11.254Z,103349.41
2019-02-24T02:28:16.354Z,103345.92
2019-02-24T02:29:21.317Z,103348.11
2019-02-24T02:30:26.449Z,103345.92
2019-02-24T02:31:31.505Z,103341.56
2019-02-24T02:32:36.471Z,103341.14
2019-02-24T02:33:41.589Z,103341.14
2019-02-24T02:34:46.954Z,103341.59
2019-02-24T02:35:51.971Z,103340.72
2019-02-24T02:36:56.969Z,103340.33
2019-02-24T02:38:02.035Z,103340.72
2019-02-24T02:39:07.149Z,103337.27
2019-02-24T02:40:12.537Z,103342.97
2019-02-24T02:41:17.964Z,103342.09
2019-02-24T02:42:23.393Z,103343.87
2019-02-24T02:43:28.481Z,103346.08
2019-02-24T02:44:33.724Z,103344.77
2019-02-24T02:45:38.853Z,103346.53
2019-02-24T02:46:44.192Z,103352.30
2019-02-24T02:47:49.605Z,103350.55
2019-02-24T02:48:54.691Z,103352.77
2019-02-24T02:50:00.399Z,103344.84
2019-02-24T02:51:05.796Z,103346.16
2019-02-24T02:52:12.308Z,103348.37
2019-02-24T02:53:17.348Z,103348.86
2019-02-24T02:54:22.323Z,103347.05
2019-02-24T02:55:27.364Z,103347.98
2019-02-24T02:56:32.514Z,103349.30
2019-02-24T02:57:37.593Z,103355.91
2019-02-24T02:58:42.655Z,103352.39
2019-02-24T02:59:48.148Z,103350.20
2019-02-24T03:00:53.885Z,103352.39
2019-02-24T03:01:59.297Z,103352.84
2019-02-24T03:03:04.736Z,103353.72
2019-02-24T03:04:09.809Z,103348.06
2019-02-24T03:05:14.802Z,103353.73
2019-02-24T03:06:28.033Z,103351.09
2019-02-24T03:07:42.714Z,103357.31
2019-02-24T03:08:49.214Z,103355.56
2019-02-24T03:09:54.198Z,103358.65
2019-02-24T03:11:01.100Z,103363.50
2019-02-24T03:12:07.004Z,103363.05
2019-02-24T03:13:12.441Z,103356.96
2019-02-24T03:14:17.690Z,103355.64
2019-02-24T03:15:22.995Z,103359.60
2019-02-24T03:16:29.673Z,103360.92
2019-02-24T03:17:34.755Z,103359.60
2019-02-24T03:18:39.734Z,103359.60
2019-02-24T03:19:45.397Z,103362.69
2019-02-24T03:20:50.361Z,103362.69
2019-02-24T03:21:55.610Z,103365.77
2019-02-24T03:23:00.747Z,103366.22
2019-02-24T03:24:06.141Z,103366.70
2019-02-24T03:25:11.439Z,103358.80
2019-02-24T03:26:16.456Z,103365.86
2019-02-24T03:27:21.413Z,103366.30
2019-02-24T03:28:26.455Z,103360.14
2019-02-24T03:29:31.456Z,103359.30
2019-02-24T03:30:36.493Z,103357.50
2019-02-24T03:31:41.518Z,103359.30
2019-02-24T03:32:46.445Z,103360.62
2019-02-24T03:33:51.405Z,103361.52
2019-02-24T03:34:56.414Z,103358.88
2019-02-24T03:36:01.416Z,103365.91
2019-02-24T03:37:06.471Z,103354.03
2019-02-24T03:38:11.654Z,103357.11
2019-02-24T03:39:16.776Z,103356.66
2019-02-24T03:40:22.208Z,103346.55
2019-02-24T03:41:27.478Z,103357.11
2019-02-24T03:42:32.559Z,103354.05
2019-02-24T03:43:37.773Z,103350.52
2019-02-24T03:44:42.741Z,103354.11
2019-02-24T03:45:48.323Z,103351.86
2019-02-24T03:46:53.371Z,103359.33
2019-02-24T03:47:58.601Z,103359.38
2019-02-24T03:49:03.629Z,103361.16
2019-02-24T03:50:08.914Z,103361.59
2019-02-24T03:51:14.017Z,103361.16
2019-02-24T03:52:19.435Z,103360.70
2019-02-24T03:53:24.556Z,103358.96
2019-02-24T03:54:29.700Z,103358.52
2019-02-24T03:55:35.215Z,103358.09
2019-02-24T03:56:40.246Z,103359.41
2019-02-24T03:57:45.533Z,103366.90
2019-02-24T03:58:50.596Z,103364.70
2019-02-24T03:59:55.991Z,103365.19
2019-02-24T04:01:00.984Z,103364.70
2019-02-24T04:02:06.048Z,103369.54
2019-02-24T04:03:11.345Z,103370.47
2019-02-24T04:04:16.738Z,103368.27
2019-02-24T04:05:21.829Z,103368.72
2019-02-24T04:06:26.906Z,103369.17
2019-02-24T04:07:32.418Z,103370.06
2019-02-24T04:08:37.738Z,103371.86
2019-02-24T04:09:42.796Z,103368.80
2019-02-24T04:10:47.779Z,103370.11
2019-02-24T04:11:52.786Z,103375.84
2019-02-24T04:12:57.767Z,103380.67
2019-02-24T04:14:03.128Z,103382.89
2019-02-24T04:15:08.263Z,103382.50
2019-02-24T04:16:13.656Z,103384.27
2019-02-24T04:17:18.696Z,103386.45
2019-02-24T04:18:24.084Z,103382.94
2019-02-24T04:19:29.919Z,103383.39
2019-02-24T04:20:35.414Z,103383.39
2019-02-24T04:21:40.716Z,103381.64
2019-02-24T04:22:45.760Z,103381.64
2019-02-24T04:23:50.722Z,103382.52
2019-02-24T04:24:55.748Z,103381.64
2019-02-24T04:26:00.955Z,103381.22
2019-02-24T04:27:06.381Z,103387.81
2019-02-24T04:28:11.754Z,103392.65
2019-02-24T04:29:24.559Z,103387.42
2019-02-24T04:30:23.901Z,103387.88
2019-02-24T04:31:28.948Z,103393.09
2019-02-24T04:32:34.290Z,103390.53
2019-02-24T04:33:39.576Z,103387.89
2019-02-24T04:34:44.536Z,103387.50
2019-02-24T04:35:49.489Z,103386.63
2019-02-24T04:36:54.971Z,103390.58
2019-02-24T04:38:00.534Z,103391.92
2019-02-24T04:39:06.122Z,103389.28
2019-02-24T04:40:11.260Z,103385.32
2019-02-24T04:41:16.355Z,103391.47
2019-02-24T04:42:21.703Z,103386.25
2019-02-24T04:43:26.656Z,103391.53
2019-02-24T04:44:31.680Z,103389.78
2019-02-24T04:45:36.836Z,103393.23
2019-02-24T04:46:41.796Z,103393.73
2019-02-24T04:47:46.822Z,103382.76
2019-02-24T04:48:52.255Z,103399.02
2019-02-24T04:49:57.313Z,103384.08
2019-02-24T04:51:02.362Z,103385.39
2019-02-24T04:52:07.397Z,103386.32
2019-02-24T04:53:12.764Z,103387.22
2019-02-24T04:54:18.401Z,103394.23
2019-02-24T04:55:23.486Z,103385.89
2019-02-24T04:56:28.572Z,103395.13
2019-02-24T04:57:33.516Z,103395.58
2019-02-24T04:58:38.745Z,103398.66
2019-02-24T04:59:44.076Z,103396.02
2019-02-24T05:00:49.168Z,103396.02
2019-02-24T05:01:54.315Z,103392.52
2019-02-24T05:02:59.542Z,103384.20
2019-02-24T05:04:04.642Z,103389.92
2019-02-24T05:05:09.774Z,103382.01
2019-02-24T05:06:14.770Z,103386.86
2019-02-24T05:07:19.879Z,103382.91
2019-02-24T05:08:24.873Z,103380.71
2019-02-24T05:09:30.035Z,103380.71
2019-02-24T05:10:35.044Z,103382.95
2019-02-24T05:11:40.119Z,103374.17
2019-02-24T05:12:45.491Z,103374.17
2019-02-24T05:13:50.902Z,103379.02
2019-02-24T05:14:55.878Z,103380.78
2019-02-24T05:16:03.928Z,103375.95
2019-02-24T05:17:08.911Z,103381.67
2019-02-24T05:18:14.263Z,103384.31
2019-02-24T05:19:19.667Z,103387.43
2019-02-24T05:20:24.637Z,103387.88
2019-02-24T05:21:29.617Z,103388.77
2019-02-24T05:22:34.573Z,103387.45
2019-02-24T05:23:39.998Z,103384.86
2019-02-24T05:24:44.966Z,103390.53
2019-02-24T05:25:50.044Z,103387.89
2019-02-24T05:26:55.705Z,103382.62
2019-02-24T05:28:00.726Z,103387.89
2019-02-24T05:29:05.682Z,103380.91
2019-02-24T05:30:10.777Z,103381.75
2019-02-24T05:31:16.142Z,103378.27
2019-02-24T05:32:21.126Z,103376.95
2019-02-24T05:33:26.697Z,103374.31
2019-02-24T05:34:31.793Z,103379.59
2019-02-24T05:35:37.398Z,103376.95
2019-02-24T05:36:42.336Z,103379.98
2019-02-24T05:37:47.402Z,103376.95
2019-02-24T05:38:52.429Z,103381.30
2019-02-24T05:39:57.490Z,103373.83
2019-02-24T05:41:02.463Z,103374.31
2019-02-24T05:42:07.549Z,103370.80
2019-02-24T05:43:12.595Z,103374.75
2019-02-24T05:44:17.735Z,103371.67
2019-02-24T05:45:23.040Z,103373.01
2019-02-24T05:46:28.027Z,103376.52
2019-02-24T05:47:33.501Z,103367.73
2019-02-24T05:48:38.992Z,103372.12
2019-02-24T05:49:43.969Z,103362.01
2019-02-24T05:50:49.519Z,103364.22
2019-02-24T05:51:54.552Z,103363.77
2019-02-24T05:52:59.648Z,103359.38
2019-02-24T05:54:04.824Z,103357.18
2019-02-24T05:55:10.194Z,103363.77
2019-02-24T05:56:15.403Z,103363.33
2019-02-24T05:57:20.434Z,103355.44
2019-02-24T05:58:25.479Z,103357.63
2019-02-24T05:59:30.810Z,103358.52
2019-02-24T06:00:35.825Z,103357.20
2019-02-24T06:01:40.870Z,103355.48
2019-02-24T06:02:45.982Z,103363.80
2019-02-24T06:03:51.071Z,103355.94
2019-02-24T06:04:56.033Z,103357.27
2019-02-24T06:06:01.079Z,103355.95
2019-02-24T06:07:06.053Z,103358.64
2019-02-24T06:08:10.982Z,103364.79
2019-02-24T06:09:16.225Z,103364.79
2019-02-24T06:10:21.660Z,103362.17
2019-02-24T06:11:26.719Z,103363.05
2019-02-24T06:12:31.794Z,103368.32
2019-02-24T06:13:36.782Z,103363.94
2019-02-24T06:14:41.831Z,103369.21
2019-02-24T06:15:46.899Z,103367.45
2019-02-24T06:16:52.244Z,103364.36
2019-02-24T06:17:57.274Z,103368.32
2019-02-24T06:19:02.409Z,103378.87
2019-02-24T06:20:07.587Z,103370.95
2019-02-24T06:21:12.573Z,103367.43
2019-02-24T06:22:17.539Z,103370.06
2019-02-24T06:23:22.572Z,103369.20
2019-02-24T06:24:30.584Z,103363.47
2019-02-24T06:25:35.675Z,103367.00
2019-02-24T06:26:40.626Z,103362.62
2019-02-24T06:27:45.657Z,103369.64
2019-02-24T06:28:51.989Z,103373.17
2019-02-24T06:30:04.525Z,103374.47
2019-02-24T06:31:04.352Z,103369.64
2019-02-24T06:32:09.809Z,103366.58
2019-02-24T06:33:15.141Z,103368.32
2019-02-24T06:34:20.443Z,103363.49
2019-02-24T06:35:25.538Z,103363.49
2019-02-24T06:36:30.519Z,103362.23
2019-02-24T06:37:35.743Z,103362.23
2019-02-24T06:38:41.102Z,103366.63
2019-02-24T06:39:46.277Z,103371.45
2019-02-24T06:40:51.671Z,103364.86
2019-02-24T06:41:56.651Z,103370.98
2019-02-24T06:43:01.692Z,103365.75
2019-02-24T06:44:06.769Z,103366.13
2019-02-24T06:45:12.232Z,103367.89
2019-02-24T06:46:17.243Z,103370.98
2019-02-24T06:47:22.293Z,103371.84
2019-02-24T06:48:27.274Z,103369.21
2019-02-24T06:49:32.820Z,103371.84
2019-02-24T06:51:09.146Z,103371.84
2019-02-24T06:52:14.176Z,103376.23
2019-02-24T06:53:19.238Z,103372.28
2019-02-24T06:54:24.310Z,103372.72
2019-02-24T06:55:29.358Z,103371.45
2019-02-24T06:56:34.396Z,103380.64
2019-02-24T06:57:39.413Z,103378.87
2019-02-24T06:58:44.735Z,103377.55
2019-02-24T06:59:49.695Z,103385.89
2019-02-24T07:00:55.117Z,103387.61
2019-02-24T07:02:00.299Z,103383.20
2019-02-24T07:03:05.403Z,103392.44
2019-02-24T07:04:10.826Z,103387.14
2019-02-24T07:05:16.498Z,103389.34
2019-02-24T07:06:21.571Z,103391.92
2019-02-24T07:07:27.143Z,103392.34
2019-02-24T07:08:32.155Z,103398.95
2019-02-24T07:09:37.537Z,103387.50
2019-02-24T07:10:42.711Z,103389.22
2019-02-24T07:11:47.709Z,103390.53
2019-02-24T07:12:52.797Z,103393.16
2019-02-24T07:13:57.930Z,103391.41
2019-02-24T07:15:03.123Z,103389.59
2019-02-24T07:16:08.160Z,103393.55
2019-02-24T07:17:13.217Z,103398.38
2019-02-24T07:18:18.327Z,103393.55
2019-02-24T07:19:23.736Z,103393.97
2019-02-24T07:20:28.763Z,103394.42
2019-02-24T07:21:33.981Z,103391.77
2019-02-24T07:22:39.385Z,103395.27
2019-02-24T07:23:44.920Z,103397.91
2019-02-24T07:24:50.367Z,103389.55
2019-02-24T07:25:55.748Z,103389.07
2019-02-24T07:27:01.040Z,103385.09
2019-02-24T07:28:06.151Z,103385.04
2019-02-24T07:29:11.347Z,103386.79
2019-02-24T07:30:23.199Z,103381.49
2019-02-24T07:31:23.256Z,103377.98
2019-02-24T07:32:28.486Z,103383.20
2019-02-24T07:33:33.541Z,103374.84
2019-02-24T07:34:38.980Z,103378.35
2019-02-24T07:35:44.100Z,103377.03
2019-02-24T07:36:49.389Z,103381.86
2019-02-24T07:37:54.446Z,103373.52
2019-02-24T07:38:59.421Z,103387.09
2019-02-24T07:40:04.904Z,103379.66
2019-02-24T07:41:10.635Z,103375.64
2019-02-24T07:42:16.054Z,103380.45
2019-02-24T07:43:21.448Z,103379.13
2019-02-24T07:44:26.577Z,103377.81
2019-02-24T07:45:31.702Z,103377.33
2019-02-24T07:46:37.144Z,103376.88
2019-02-24T07:47:43.155Z,103374.23
2019-02-24T07:48:48.249Z,103371.09
2019-02-24T07:49:53.958Z,103373.72
2019-02-24T07:50:59.583Z,103367.98
2019-02-24T07:52:04.731Z,103367.92
2019-02-24T07:53:10.220Z,103371.44
2019-02-24T07:54:15.321Z,103370.98
2019-02-24T07:55:21.628Z,103368.74
2019-02-24T07:56:27.120Z,103369.15
2019-02-24T07:57:32.169Z,103367.34
2019-02-24T07:58:37.474Z,103368.64
2019-02-24T07:59:43.483Z,103373.03
2019-02-24T08:00:49.070Z,103375.17
2019-02-24T08:01:55.169Z,103374.67
2019-02-24T08:03:00.222Z,103372.00
2019-02-24T08:04:05.564Z,103370.19
2019-02-24T08:05:10.832Z,103372.80
2019-02-24T08:06:16.254Z,103377.19
2019-02-24T08:07:23.604Z,103376.26
2019-02-24T08:08:29.963Z,103377.98
2019-02-24T08:09:35.294Z,103381.44
2019-02-24T08:10:40.700Z,103384.90
2019-02-24T08:11:45.670Z,103386.20
2019-02-24T08:12:50.694Z,103389.71
2019-02-24T08:13:55.821Z,103390.97
2019-02-24T08:15:00.857Z,103390.50
2019-02-24T08:16:05.982Z,103393.52
2019-02-24T08:17:11.040Z,103394.39
2019-02-24T08:18:16.100Z,103398.27
2019-02-24T08:19:21.123Z,103402.63
2019-02-24T08:20:26.418Z,103403.48
2019-02-24T08:21:31.532Z,103411.40
2019-02-24T08:22:36.719Z,103413.54
2019-02-24T08:23:42.085Z,103413.06
2019-02-24T08:24:47.099Z,103416.09
2019-02-24T08:25:52.089Z,103419.59
2019-02-24T08:26:57.055Z,103411.59
2019-02-24T08:28:02.124Z,103419.94
2019-02-24T08:29:07.296Z,103419.04
2019-02-24T08:30:12.447Z,103423.00
2019-02-24T08:31:17.568Z,103426.50
2019-02-24T08:32:22.733Z,103429.95
2019-02-24T08:33:27.749Z,103425.09
2019-02-24T08:34:32.807Z,103431.20
2019-02-24T08:35:37.817Z,103432.02
2019-02-24T08:36:42.993Z,103435.53
2019-02-24T08:37:48.720Z,103428.45
2019-02-24T08:38:54.711Z,103438.97
2019-02-24T08:40:01.411Z,103432.72
2019-02-24T08:41:08.146Z,103436.23
2019-02-24T08:42:15.345Z,103437.09
2019-02-24T08:43:24.340Z,103443.19
2019-02-24T08:44:29.728Z,103437.01
2019-02-24T08:45:35.342Z,103439.14
2019-02-24T08:46:40.667Z,103441.28
2019-02-24T08:47:46.262Z,103444.33
2019-02-24T08:48:51.445Z,103444.27
2019-02-24T08:49:57.145Z,103449.08
2019-02-24T08:51:02.634Z,103443.73
2019-02-24T08:52:08.260Z,103450.71
2019-02-24T08:53:13.938Z,103455.92
2019-02-24T08:54:19.277Z,103458.11
2019-02-24T08:55:24.852Z,103456.31
2019-02-24T08:56:30.496Z,103461.09
2019-02-24T08:57:35.597Z,103462.39
2019-02-24T08:58:41.482Z,103459.24
2019-02-24T08:59:47.199Z,103461.83
2019-02-24T09:00:52.341Z,103465.77
2019-02-24T09:01:57.400Z,103465.27
2019-02-24T09:03:02.739Z,103462.14
2019-02-24T09:04:07.848Z,103463.41
2019-02-24T09:05:13.210Z,103464.28
2019-02-24T09:06:18.292Z,103462.48
2019-02-24T09:07:23.606Z,103459.78
2019-02-24T09:08:29.040Z,103469.82
2019-02-24T09:09:34.075Z,103465.34
2019-02-24T09:10:39.519Z,103466.64
2019-02-24T09:11:44.560Z,103471.88
2019-02-24T09:12:49.680Z,103465.23
2019-02-24T09:13:55.911Z,103463.89
2019-02-24T09:15:01.837Z,103470.44
2019-02-24T09:16:07.134Z,103468.22
2019-02-24T09:17:16.200Z,103478.28
2019-02-24T09:18:23.238Z,103470.33
2019-02-24T09:19:28.765Z,103470.72
2019-02-24T09:20:34.643Z,103471.56
2019-02-24T09:21:40.195Z,103478.53
2019-02-24T09:22:45.749Z,103476.77
2019-02-24T09:23:52.012Z,103471.41
2019-02-24T09:24:57.715Z,103480.59
2019-02-24T09:26:03.067Z,103477.04
2019-02-24T09:27:08.713Z,103472.59
2019-02-24T09:28:15.363Z,103481.80
2019-02-24T09:29:23.034Z,103483.92
2019-02-24T09:30:28.083Z,103483.90
2019-02-24T09:31:33.687Z,103489.55
2019-02-24T09:32:39.327Z,103485.55
2019-02-24T09:33:44.879Z,103489.89
2019-02-24T09:34:52.699Z,103490.25
2019-02-24T09:35:58.514Z,103496.84
2019-02-24T09:37:04.264Z,103488.39
2019-02-24T09:38:09.588Z,103495.36
2019-02-24T09:39:16.265Z,103494.91
2019-02-24T09:40:22.245Z,103500.12
2019-02-24T09:41:28.269Z,103500.09
2019-02-24T09:42:33.688Z,103497.37
2019-02-24T09:43:39.104Z,103500.45
2019-02-24T09:44:44.333Z,103501.26
2019-02-24T09:45:50.282Z,103495.48
2019-02-24T09:46:55.388Z,103496.30
2019-02-24T09:48:00.446Z,103502.82
2019-02-24T09:49:05.992Z,103501.50
2019-02-24T09:50:11.481Z,103499.70
2019-02-24T09:51:16.467Z,103501.83
2019-02-24T09:52:22.207Z,103502.19
2019-02-24T09:53:27.535Z,103498.58
2019-02-24T09:54:32.875Z,103499.41
2019-02-24T09:55:39.737Z,103497.58
2019-02-24T09:56:45.429Z,103500.20
2019-02-24T09:57:50.488Z,103502.78
2019-02-24T09:58:55.539Z,103497.87
2019-02-24T10:00:00.594Z,103503.56
2019-02-24T10:01:10.787Z,103503.91
2019-02-24T10:02:12.524Z,103495.94
2019-02-24T10:03:17.662Z,103498.49
2019-02-24T10:04:23.326Z,103500.17
2019-02-24T10:05:28.709Z,103499.23
2019-02-24T10:06:34.345Z,103496.52
2019-02-24T10:07:39.558Z,103492.03
2019-02-24T10:08:44.582Z,103487.58
2019-02-24T10:09:50.238Z,103494.55
2019-02-24T10:10:55.185Z,103483.51
2019-02-24T10:12:01.062Z,103488.70
2019-02-24T10:13:06.403Z,103485.16
2019-02-24T10:14:12.717Z,103485.96
2019-02-24T10:15:17.878Z,103477.11
2019-02-24T10:16:23.345Z,103484.95
2019-02-24T10:17:28.533Z,103481.41
2019-02-24T10:18:33.488Z,103484.86
2019-02-24T10:19:39.359Z,103487.92
2019-02-24T10:20:44.503Z,103488.73
2019-02-24T10:21:49.876Z,103486.92
2019-02-24T10:22:55.231Z,103485.50
2019-02-24T10:24:00.301Z,103486.79
2019-02-24T10:25:06.128Z,103483.58
2019-02-24T10:26:11.826Z,103480.03
2019-02-24T10:27:17.583Z,103478.60
2019-02-24T10:28:22.934Z,103476.83
2019-02-24T10:29:28.039Z,103482.92
2019-02-24T10:30:33.541Z,103476.23
2019-02-24T10:31:38.655Z,103477.52
2019-02-24T10:32:43.947Z,103486.28
2019-02-24T10:33:49.443Z,103484.92
2019-02-24T10:34:55.092Z,103482.17
2019-02-24T10:36:00.141Z,103482.59
2019-02-24T10:37:05.315Z,103482.48
2019-02-24T10:38:10.517Z,103481.96
2019-02-24T10:39:15.731Z,103484.58
2019-02-24T10:40:21.119Z,103482.27
2019-02-24T10:41:26.283Z,103476.87
2019-02-24T10:42:31.301Z,103485.23
2019-02-24T10:43:36.834Z,103478.50
2019-02-24T10:44:42.144Z,103478.50
2019-02-24T10:45:47.527Z,103482.38
2019-02-24T10:46:53.205Z,103484.09
2019-02-24T10:47:58.540Z,103483.59
2019-02-24T10:49:03.820Z,103479.09
2019-02-24T10:50:11.414Z,103475.95
2019-02-24T10:51:16.775Z,103482.48
2019-02-24T10:52:21.858Z,103485.89
2019-02-24T10:53:28.265Z,103481.35
2019-02-24T10:54:34.124Z,103474.30
2019-02-24T10:55:39.441Z,103480.19
2019-02-24T10:56:48.224Z,103480.19
2019-02-24T10:57:53.216Z,103485.00
2019-02-24T10:58:58.333Z,103488.45
2019-02-24T11:00:04.060Z,103469.23
2019-02-24T11:01:11.112Z,103476.48
2019-02-24T11:02:16.207Z,103475.50
2019-02-24T11:03:21.916Z,103472.73
2019-02-24T11:04:27.481Z,103470.42
2019-02-24T11:05:33.182Z,103472.58
2019-02-24T11:06:38.062Z,103471.19
2019-02-24T11:07:43.320Z,103476.00
2019-02-24T11:08:50.101Z,103471.08
2019-02-24T11:09:55.193Z,103467.51
2019-02-24T11:11:00.826Z,103460.12
2019-02-24T11:12:05.963Z,103474.94
2019-02-24T11:13:11.916Z,103472.70
2019-02-24T11:14:17.015Z,103474.45
2019-02-24T11:15:22.079Z,103475.66
2019-02-24T11:16:27.199Z,103475.47
2019-02-24T11:17:32.256Z,103475.47
2019-02-24T11:18:37.317Z,103470.05
2019-02-24T11:19:42.396Z,103469.55
2019-02-24T11:20:47.522Z,103473.34
2019-02-24T11:21:52.550Z,103475.09
2019-02-24T11:22:57.587Z,103477.22
2019-02-24T11:24:02.770Z,103478.91
2019-02-24T11:25:08.607Z,103482.83
2019-02-24T11:26:13.667Z,103475.27
2019-02-24T11:27:18.972Z,103481.00
2019-02-24T11:28:24.375Z,103473.42
2019-02-24T11:29:29.568Z,103476.95
2019-02-24T11:30:34.619Z,103468.52
2019-02-24T11:31:39.987Z,103474.25
2019-02-24T11:32:45.100Z,103474.63
2019-02-24T11:33:50.147Z,103479.44
2019-02-24T11:34:55.126Z,103482.48
2019-02-24T11:36:00.188Z,103479.33
2019-02-24T11:37:05.232Z,103480.53
2019-02-24T11:38:10.591Z,103483.07
2019-02-24T11:39:16.015Z,103478.55
2019-02-24T11:40:20.938Z,103470.96
2019-02-24T11:41:26.049Z,103471.30
2019-02-24T11:42:31.646Z,103468.98
2019-02-24T11:43:36.649Z,103472.92
2019-02-24T11:44:41.598Z,103467.98
2019-02-24T11:45:46.971Z,103467.08
2019-02-24T11:46:52.396Z,103470.15
2019-02-24T11:47:58.129Z,103471.73
2019-02-24T11:49:03.529Z,103471.73
2019-02-24T11:50:08.822Z,103473.48
2019-02-24T11:51:13.877Z,103469.86
2019-02-24T11:52:18.829Z,103468.48
2019-02-24T11:53:24.245Z,103469.70
2019-02-24T11:54:29.246Z,103464.38
2019-02-24T11:55:34.391Z,103465.13
2019-02-24T11:56:39.357Z,103459.73
2019-02-24T11:57:44.563Z,103459.28
2019-02-24T11:58:49.642Z,103465.88
2019-02-24T11:59:54.569Z,103460.48
2019-02-24T12:00:59.654Z,103467.88
2019-02-24T12:02:04.770Z,103456.75
2019-02-24T12:03:09.862Z,103458.45
2019-02-24T12:04:14.947Z,103452.63
2019-02-24T12:05:19.966Z,103454.75
2019-02-24T12:06:24.997Z,103451.59
2019-02-24T12:07:29.950Z,103446.66
2019-02-24T12:08:36.311Z,103447.41
2019-02-24T12:09:41.810Z,103449.47
2019-02-24T12:10:47.950Z,103446.28
2019-02-24T12:11:53.498Z,103447.10
2019-02-24T12:12:58.557Z,103444.82
2019-02-24T12:14:03.728Z,103439.87
2019-02-24T12:15:09.605Z,103442.45
2019-02-24T12:16:15.353Z,103441.94
2019-02-24T12:17:20.402Z,103444.06
2019-02-24T12:18:25.899Z,103443.52
2019-02-24T12:19:30.865Z,103447.37
2019-02-24T12:20:35.954Z,103443.34
2019-02-24T12:21:41.283Z,103454.39
2019-02-24T12:22:46.721Z,103443.67
2019-02-24T12:23:51.837Z,103447.53
2019-02-24T12:24:56.965Z,103445.28
2019-02-24T12:26:02.342Z,103445.23
2019-02-24T12:27:07.490Z,103439.42